createdAt,value
2018-12-29T00:00:11.051Z,23.90
2018-12-29T00:05:33.813Z,25.30
2018-12-29T00:10:56.607Z,24.83
2018-12-29T00:16:19.379Z,24.10
2018-12-29T00:21:35.147Z,24.00
2018-12-29T00:26:50.841Z,25.40
2018-12-29T00:32:06.508Z,24.80
2018-12-29T00:37:22.164Z,22.77
2018-12-29T00:42:37.686Z,25.83
2018-12-29T00:47:53.214Z,23.90
2018-12-29T00:53:08.702Z,23.83
2018-12-29T00:58:24.228Z,23.93
2018-12-29T01:03:39.658Z,23.17
2018-12-29T01:08:55.393Z,25.53
2018-12-29T01:14:11.230Z,24.97
2018-12-29T01:19:27.148Z,24.53
2018-12-29T01:24:42.934Z,24.43
2018-12-29T01:29:58.459Z,28.50
2018-12-29T01:35:14.307Z,25.63
2018-12-29T01:40:30.657Z,26.13
2018-12-29T01:45:46.433Z,26.43
2018-12-29T01:51:02.190Z,26.13
2018-12-29T01:56:18.419Z,27.43
2018-12-29T02:01:33.901Z,26.37
2018-12-29T02:06:49.372Z,25.80
2018-12-29T02:12:05.239Z,26.33
2018-12-29T02:22:44.667Z,27.03
2018-12-29T02:28:00.006Z,26.73
2018-12-29T02:33:15.898Z,26.27
2018-12-29T02:38:31.247Z,25.77
2018-12-29T02:43:46.857Z,28.17
2018-12-29T02:49:02.458Z,27.77
2018-12-29T02:54:17.983Z,29.23
2018-12-29T02:59:33.810Z,29.80
2018-12-29T03:04:49.073Z,30.60
2018-12-29T03:10:04.940Z,28.63
2018-12-29T03:15:20.418Z,29.07
2018-12-29T03:20:36.232Z,28.50
2018-12-29T03:25:52.096Z,27.67
2018-12-29T03:31:08.025Z,26.23
2018-12-29T03:36:24.117Z,26.60
2018-12-29T03:41:39.438Z,28.17
2018-12-29T03:46:54.930Z,28.43
2018-12-29T03:52:10.774Z,27.80
2018-12-29T03:57:26.865Z,26.80
2018-12-29T04:02:42.980Z,25.53
2018-12-29T04:07:58.163Z,27.27
2018-12-29T04:13:13.500Z,27.67
2018-12-29T04:18:29.103Z,25.27
2018-12-29T04:23:44.415Z,25.20
2018-12-29T04:28:59.793Z,26.83
2018-12-29T04:34:15.417Z,26.40
2018-12-29T04:39:31.438Z,26.00
2018-12-29T04:44:46.711Z,25.93
2018-12-29T04:50:02.579Z,25.13
2018-12-29T04:55:18.309Z,24.53
2018-12-29T05:00:34.068Z,25.27
2018-12-29T05:05:49.802Z,26.10
2018-12-29T05:11:05.570Z,24.53
2018-12-29T05:16:20.926Z,23.47
2018-12-29T05:21:36.433Z,24.37
2018-12-29T05:26:52.311Z,21.87
2018-12-29T05:32:07.655Z,22.87
2018-12-29T05:37:25.089Z,22.47
2018-12-29T05:42:43.147Z,22.13
2018-12-29T05:47:58.833Z,21.97
2018-12-29T05:53:15.825Z,22.73
2018-12-29T05:58:19.256Z,22.23
2018-12-29T06:04:02.772Z,20.33
2018-12-29T06:09:46.078Z,21.40
2018-12-29T06:15:09.412Z,21.73
2018-12-29T06:20:26.274Z,20.93
2018-12-29T06:25:42.314Z,19.93
2018-12-29T06:30:58.044Z,20.23
2018-12-29T06:36:15.693Z,19.47
2018-12-29T06:41:31.570Z,18.73
2018-12-29T06:46:51.093Z,20.23
2018-12-29T06:52:08.694Z,20.40
2018-12-29T06:57:26.962Z,19.23
2018-12-29T07:02:48.208Z,18.53
2018-12-29T07:08:06.568Z,18.37
2018-12-29T07:13:22.599Z,17.37
2018-12-29T07:18:39.740Z,17.93
2018-12-29T07:23:56.804Z,19.37
2018-12-29T07:29:13.722Z,17.30
2018-12-29T07:34:32.107Z,16.53
2018-12-29T07:39:52.336Z,19.83
2018-12-29T07:45:10.141Z,18.47
2018-12-29T07:50:31.976Z,19.73
2018-12-29T07:55:49.991Z,21.40
2018-12-29T08:01:10.382Z,20.53
2018-12-29T08:06:29.509Z,20.87
2018-12-29T08:11:48.102Z,20.93
2018-12-29T08:17:04.370Z,20.73
2018-12-29T08:22:24.159Z,20.23
2018-12-29T08:27:40.733Z,18.43
2018-12-29T08:32:57.723Z,20.80
2018-12-29T08:38:14.653Z,20.33
2018-12-29T08:43:32.576Z,22.70
2018-12-29T08:48:51.621Z,22.10
2018-12-29T08:54:07.955Z,20.87
2018-12-29T08:59:25.455Z,21.40
2018-12-29T09:04:41.314Z,21.60
2018-12-29T09:10:00.622Z,20.53
2018-12-29T09:15:18.495Z,23.60
2018-12-29T09:20:35.047Z,23.63
2018-12-29T09:25:52.375Z,22.93
2018-12-29T09:31:09.787Z,24.07
2018-12-29T09:36:27.644Z,23.87
2018-12-29T09:41:44.063Z,29.37
2018-12-29T09:47:02.484Z,30.57
2018-12-29T09:52:18.586Z,28.80
2018-12-29T10:03:04.721Z,26.43
2018-12-29T10:08:27.888Z,24.80
2018-12-29T10:13:43.578Z,23.73
2018-12-29T10:18:59.599Z,23.43
2018-12-29T10:24:16.525Z,25.77
2018-12-29T10:29:32.799Z,24.40
2018-12-29T10:34:48.310Z,22.93
2018-12-29T10:40:03.860Z,22.47
2018-12-29T10:45:19.084Z,22.23
2018-12-29T10:50:35.691Z,21.20
2018-12-29T11:01:25.956Z,22.23
2018-12-29T11:11:58.386Z,20.63
2018-12-29T11:17:14.019Z,21.87
2018-12-29T11:22:29.989Z,23.13
2018-12-29T11:27:45.877Z,22.70
2018-12-29T11:33:01.187Z,24.17
2018-12-29T11:38:19.014Z,22.27
2018-12-29T11:43:34.887Z,24.20
2018-12-29T11:48:50.509Z,24.30
2018-12-29T11:54:15.702Z,22.10
2018-12-29T11:59:35.761Z,23.67
2018-12-29T12:04:54.012Z,22.67
2018-12-29T12:10:13.066Z,22.37
2018-12-29T12:21:14.600Z,24.23
2018-12-29T12:31:41.159Z,22.40
2018-12-29T12:36:56.574Z,23.47
2018-12-29T12:42:12.573Z,23.57
2018-12-29T12:47:28.214Z,22.77
2018-12-29T12:52:44.378Z,20.47
2018-12-29T12:57:59.853Z,18.87
2018-12-29T13:03:16.395Z,20.67
2018-12-29T13:08:32.565Z,20.47
2018-12-29T13:13:48.645Z,17.17
2018-12-29T13:19:04.118Z,18.73
2018-12-29T13:24:20.855Z,16.90
2018-12-29T13:29:36.413Z,18.17
2018-12-29T13:34:51.928Z,18.20
2018-12-29T13:40:07.497Z,18.17
2018-12-29T13:45:24.101Z,17.53
2018-12-29T13:50:39.602Z,17.83
2018-12-29T13:55:55.424Z,19.53
2018-12-29T14:01:11.157Z,18.20
2018-12-29T14:06:27.102Z,16.23
2018-12-29T14:11:42.733Z,13.17
2018-12-29T14:16:58.821Z,19.00
2018-12-29T14:22:14.382Z,18.17
2018-12-29T14:27:29.673Z,17.87
2018-12-29T14:32:33.105Z,13.70
2018-12-29T14:37:56.489Z,14.70
2018-12-29T14:43:19.277Z,13.00
2018-12-29T14:48:42.213Z,16.07
2018-12-29T14:54:05.232Z,15.83
2018-12-29T14:59:27.997Z,15.73
2018-12-29T15:04:50.765Z,15.10
2018-12-29T15:10:13.578Z,14.23
2018-12-29T15:15:36.357Z,14.50
2018-12-29T15:20:52.663Z,14.30
2018-12-29T15:26:08.747Z,14.23
2018-12-29T15:31:24.894Z,12.30
2018-12-29T15:36:41.036Z,12.90
2018-12-29T15:41:57.101Z,14.00
2018-12-29T15:47:12.925Z,15.27
2018-12-29T15:52:29.288Z,14.40
2018-12-29T15:57:44.811Z,13.77
2018-12-29T16:03:02.212Z,13.27
2018-12-29T16:08:18.239Z,13.07
2018-12-29T16:13:35.591Z,11.47
2018-12-29T16:18:58.818Z,10.60
2018-12-29T16:24:15.673Z,10.87
2018-12-29T16:29:33.496Z,8.30
2018-12-29T16:34:49.253Z,8.87
2018-12-29T16:40:05.321Z,8.17
2018-12-29T16:45:24.609Z,6.37
2018-12-29T16:50:41.453Z,5.20
2018-12-29T16:56:01.845Z,5.97
2018-12-29T17:01:17.746Z,6.03
2018-12-29T17:06:34.992Z,5.43
2018-12-29T17:11:52.444Z,7.37
2018-12-29T17:17:08.899Z,8.40
2018-12-29T17:22:25.121Z,7.90
2018-12-29T17:27:41.024Z,9.83
2018-12-29T17:32:57.853Z,9.97
2018-12-29T17:38:13.774Z,10.83
2018-12-29T17:48:53.982Z,12.43
2018-12-29T17:54:09.341Z,13.40
2018-12-29T17:59:25.101Z,12.87
2018-12-29T18:04:41.642Z,14.50
2018-12-29T18:09:57.686Z,12.47
2018-12-29T18:15:14.068Z,15.07
2018-12-29T18:20:31.223Z,16.57
2018-12-29T18:25:47.080Z,15.40
2018-12-29T18:31:02.641Z,17.23
2018-12-29T18:36:18.429Z,18.70
2018-12-29T18:41:21.865Z,19.90
2018-12-29T18:46:44.722Z,18.90
2018-12-29T18:52:07.501Z,20.67
2018-12-29T18:57:30.266Z,21.43
2018-12-29T19:02:53.040Z,22.37
2018-12-29T19:08:16.551Z,22.17
2018-12-29T19:13:39.354Z,23.07
2018-12-29T19:19:02.382Z,25.23
2018-12-29T19:24:19.326Z,25.00
2018-12-29T19:29:35.153Z,27.17
2018-12-29T19:34:50.801Z,29.17
2018-12-29T19:40:06.337Z,29.23
2018-12-29T19:45:21.722Z,28.83
2018-12-29T19:50:37.771Z,30.43
2018-12-29T19:55:53.555Z,30.43
2018-12-29T20:01:10.580Z,28.47
2018-12-29T20:06:25.953Z,24.63
2018-12-29T20:11:41.498Z,24.83
2018-12-29T20:16:57.534Z,22.93
2018-12-29T20:22:13.496Z,23.83
2018-12-29T20:27:29.160Z,18.53
2018-12-29T20:32:45.129Z,18.63
2018-12-29T20:38:01.079Z,19.80
2018-12-29T20:43:17.135Z,16.67
2018-12-29T20:48:33.034Z,15.47
2018-12-29T20:53:48.894Z,9.27
2018-12-29T20:59:04.751Z,8.87
2018-12-29T21:04:21.098Z,8.03
2018-12-29T21:09:36.591Z,5.67
2018-12-29T21:14:52.772Z,3.13
2018-12-29T21:20:17.340Z,3.27
2018-12-29T21:25:31.893Z,2.37
2018-12-29T21:30:47.852Z,2.13
2018-12-29T21:36:04.795Z,3.03
2018-12-29T21:41:21.248Z,2.90
2018-12-29T21:46:37.701Z,1.60
2018-12-29T21:51:53.912Z,2.20
2018-12-29T21:57:09.673Z,1.53
2018-12-29T22:02:25.435Z,1.67
2018-12-29T22:07:41.344Z,1.33
2018-12-29T22:12:57.259Z,2.03
2018-12-29T22:18:12.757Z,1.57
2018-12-29T22:23:28.998Z,2.67
2018-12-29T22:28:44.977Z,1.50
2018-12-29T22:34:00.774Z,1.80
2018-12-29T22:39:16.702Z,1.73
2018-12-29T22:44:33.174Z,1.93
2018-12-29T22:49:48.921Z,2.30
2018-12-29T22:55:04.086Z,2.10
2018-12-29T23:00:21.565Z,1.87
2018-12-29T23:05:37.312Z,2.43
2018-12-29T23:10:53.425Z,1.60
2018-12-29T23:16:09.502Z,1.53
2018-12-29T23:21:24.801Z,2.63
2018-12-29T23:26:40.110Z,3.73
2018-12-29T23:31:56.028Z,2.20
2018-12-29T23:37:11.529Z,2.17
2018-12-29T23:42:26.921Z,1.63
2018-12-29T23:47:42.291Z,2.50
2018-12-29T23:52:58.326Z,2.40
2018-12-29T23:58:14.746Z,2.70
